createdAt,value
2023-03-24T00:01:25.824Z,2.03
2023-03-24T00:03:54.249Z,1.43
2023-03-24T00:06:26.730Z,1.70
2023-03-24T00:08:55.777Z,1.97
2023-03-24T00:11:25.545Z,2.80
2023-03-24T00:13:54.208Z,2.63
2023-03-24T00:16:22.687Z,2.60
2023-03-24T00:18:53.453Z,2.77
2023-03-24T00:21:24.816Z,2.10
2023-03-24T00:23:56.048Z,2.17
2023-03-24T00:26:25.808Z,2.20
2023-03-24T00:28:55.078Z,1.90
2023-03-24T00:31:24.602Z,2.07
2023-03-24T00:33:54.045Z,1.87
2023-03-24T00:36:24.477Z,1.90
2023-03-24T00:38:54.977Z,2.07
2023-03-24T00:41:25.114Z,2.40
2023-03-24T00:43:56.860Z,2.20
2023-03-24T00:46:29.357Z,2.17
2023-03-24T00:49:02.281Z,2.57
2023-03-24T00:51:33.505Z,2.37
2023-03-24T00:54:03.839Z,2.13
2023-03-24T00:56:34.565Z,2.03
2023-03-24T00:59:03.404Z,2.40
2023-03-24T01:01:35.542Z,3.73
2023-03-24T01:04:06.145Z,1.80
2023-03-24T01:06:36.791Z,2.40
2023-03-24T01:09:07.259Z,2.47
2023-03-24T01:11:40.094Z,2.43
2023-03-24T01:14:09.758Z,2.70
2023-03-24T01:16:38.512Z,3.00
2023-03-24T01:19:09.397Z,2.37
2023-03-24T01:21:38.885Z,2.33
2023-03-24T01:24:09.294Z,3.20
2023-03-24T01:26:38.058Z,2.67
2023-03-24T01:29:06.792Z,3.47
2023-03-24T01:31:35.716Z,3.00
2023-03-24T01:34:04.701Z,3.07
2023-03-24T01:36:33.634Z,2.97
2023-03-24T01:39:02.211Z,2.47
2023-03-24T01:41:35.984Z,3.20
2023-03-24T01:44:25.652Z,1.53
2023-03-24T01:46:54.519Z,2.50
2023-03-24T01:49:23.968Z,2.43
2023-03-24T01:51:57.196Z,2.60
2023-03-24T01:54:28.629Z,4.80
2023-03-24T01:57:04.033Z,2.73
2023-03-24T01:59:35.960Z,3.37
2023-03-24T02:02:06.781Z,2.27
2023-03-24T02:04:38.850Z,2.70
2023-03-24T02:07:15.483Z,2.93
2023-03-24T02:09:44.662Z,3.07
2023-03-24T02:12:14.674Z,2.40
2023-03-24T02:14:43.615Z,2.50
2023-03-24T02:17:30.260Z,2.90
2023-03-24T02:20:28.145Z,2.43
2023-03-24T02:23:32.030Z,2.70
2023-03-24T02:26:46.712Z,2.67
2023-03-24T02:29:44.634Z,2.87
2023-03-24T02:32:54.591Z,2.27
2023-03-24T02:35:50.143Z,2.83
2023-03-24T02:38:48.737Z,2.83
2023-03-24T02:41:26.262Z,2.90
2023-03-24T02:44:03.755Z,3.40
2023-03-24T02:46:37.996Z,2.40
2023-03-24T02:49:19.930Z,2.00
2023-03-24T02:51:53.488Z,2.70
2023-03-24T02:54:29.367Z,2.43
2023-03-24T02:57:06.259Z,1.87
2023-03-24T02:59:38.901Z,2.50
2023-03-24T03:02:10.379Z,2.57
2023-03-24T03:04:46.753Z,2.90
2023-03-24T03:07:17.010Z,2.27
2023-03-24T03:09:51.336Z,4.23
2023-03-24T03:12:24.226Z,2.90
2023-03-24T03:14:56.507Z,2.50
2023-03-24T03:17:30.743Z,1.53
2023-03-24T03:20:08.123Z,2.33
2023-03-24T03:22:43.281Z,2.80
2023-03-24T03:25:13.272Z,2.97
2023-03-24T03:27:47.210Z,3.07
2023-03-24T03:30:19.778Z,3.03
2023-03-24T03:32:54.735Z,2.80
2023-03-24T03:35:28.053Z,2.40
2023-03-24T03:38:04.591Z,2.27
2023-03-24T03:40:36.748Z,4.43
2023-03-24T03:43:07.645Z,2.63
2023-03-24T03:45:36.823Z,3.17
2023-03-24T03:48:05.696Z,3.33
2023-03-24T03:50:35.107Z,3.47
2023-03-24T03:53:03.886Z,2.83
2023-03-24T03:55:32.576Z,2.60
2023-03-24T03:58:01.571Z,3.23
2023-03-24T04:00:32.138Z,2.40
2023-03-24T04:03:17.926Z,3.23
2023-03-24T04:05:53.940Z,2.97
2023-03-24T04:08:27.527Z,2.73
2023-03-24T04:11:11.544Z,2.70
2023-03-24T04:13:49.140Z,2.87
2023-03-24T04:16:26.485Z,2.30
2023-03-24T04:19:12.270Z,2.73
2023-03-24T04:21:55.147Z,3.40
2023-03-24T04:24:33.219Z,3.07
2023-03-24T04:27:09.525Z,2.07
2023-03-24T04:29:46.969Z,2.90
2023-03-24T04:32:22.839Z,2.80
2023-03-24T04:35:01.612Z,3.13
2023-03-24T04:37:32.801Z,2.63
2023-03-24T04:40:06.250Z,2.77
2023-03-24T04:42:37.369Z,1.67
2023-03-24T04:45:07.976Z,2.57
2023-03-24T04:47:44.160Z,2.50
2023-03-24T04:50:13.396Z,3.33
2023-03-24T04:52:43.083Z,2.90
2023-03-24T04:55:52.285Z,3.10
2023-03-24T04:58:22.420Z,1.77
2023-03-24T05:00:51.852Z,2.90
2023-03-24T05:03:21.843Z,2.67
2023-03-24T05:05:52.364Z,1.93
2023-03-24T05:08:21.570Z,2.97
2023-03-24T05:10:50.404Z,2.30
2023-03-24T05:13:19.156Z,2.57
2023-03-24T05:15:47.528Z,2.30
2023-03-24T05:18:16.055Z,1.73
2023-03-24T05:20:46.099Z,2.70
2023-03-24T05:23:14.314Z,2.10
2023-03-24T05:25:43.308Z,2.43
2023-03-24T05:28:12.176Z,2.87
2023-03-24T05:30:40.626Z,3.07
2023-03-24T05:33:09.244Z,2.17
2023-03-24T05:35:37.655Z,2.07
2023-03-24T05:38:07.321Z,2.77
2023-03-24T05:40:35.780Z,2.90
2023-03-24T05:43:04.056Z,2.73
2023-03-24T05:45:32.291Z,3.30
2023-03-24T05:48:01.020Z,3.73
2023-03-24T05:50:29.855Z,2.60
2023-03-24T05:52:58.497Z,3.07
2023-03-24T05:55:28.200Z,2.47
2023-03-24T05:57:57.300Z,2.57
2023-03-24T06:00:26.625Z,2.50
2023-03-24T06:02:55.645Z,3.00
2023-03-24T06:05:24.446Z,2.60
2023-03-24T06:07:58.861Z,3.43
2023-03-24T06:10:29.837Z,2.90
2023-03-24T06:12:58.157Z,3.40
2023-03-24T06:15:28.471Z,2.50
2023-03-24T06:17:56.770Z,2.63
2023-03-24T06:20:25.029Z,2.60
2023-03-24T06:22:54.517Z,3.57
2023-03-24T06:25:26.277Z,3.43
2023-03-24T06:27:55.906Z,3.33
2023-03-24T06:30:24.558Z,2.93
2023-03-24T06:32:52.728Z,2.87
2023-03-24T06:35:21.346Z,3.37
2023-03-24T06:37:49.997Z,3.00
2023-03-24T06:40:18.370Z,2.70
2023-03-24T06:42:47.045Z,3.97
2023-03-24T06:45:17.224Z,3.07
2023-03-24T06:47:45.536Z,2.90
2023-03-24T06:50:14.384Z,2.60
2023-03-24T06:52:42.960Z,3.23
2023-03-24T06:55:11.487Z,3.27
2023-03-24T06:57:40.294Z,2.80
2023-03-24T07:00:10.373Z,3.40
2023-03-24T07:02:40.557Z,3.40
2023-03-24T07:05:11.145Z,3.23
2023-03-24T07:10:14.254Z,3.00
2023-03-24T07:12:42.543Z,3.30
2023-03-24T07:15:12.179Z,2.43
2023-03-24T07:17:42.698Z,2.97
2023-03-24T07:20:11.533Z,2.87
2023-03-24T07:22:39.855Z,2.77
2023-03-24T07:25:09.771Z,2.53
2023-03-24T07:27:39.427Z,2.93
2023-03-24T07:30:10.631Z,3.17
2023-03-24T07:32:39.545Z,3.07
2023-03-24T07:35:12.110Z,2.43
2023-03-24T07:37:41.084Z,2.77
2023-03-24T07:40:11.913Z,2.53
2023-03-24T07:42:40.283Z,2.97
2023-03-24T07:45:10.761Z,1.90
2023-03-24T07:47:39.577Z,2.87
2023-03-24T07:50:11.167Z,2.40
2023-03-24T07:52:40.280Z,3.10
2023-03-24T07:55:12.445Z,2.20
2023-03-24T07:57:42.157Z,2.83
2023-03-24T08:00:16.618Z,2.70
2023-03-24T08:02:47.080Z,2.60
2023-03-24T08:05:20.068Z,2.70
2023-03-24T08:07:53.447Z,2.40
2023-03-24T08:10:24.563Z,2.80
2023-03-24T08:12:53.400Z,3.03
2023-03-24T08:15:22.292Z,3.40
2023-03-24T08:17:52.225Z,3.40
2023-03-24T08:20:24.742Z,2.73
2023-03-24T08:22:54.831Z,3.07
2023-03-24T08:25:25.770Z,3.70
2023-03-24T08:27:54.910Z,3.40
2023-03-24T08:30:25.196Z,2.63
2023-03-24T08:32:55.603Z,2.80
2023-03-24T08:35:28.335Z,2.40
2023-03-24T08:37:56.811Z,3.23
2023-03-24T08:40:26.859Z,2.73
2023-03-24T08:42:58.029Z,2.97
2023-03-24T08:45:28.594Z,2.43
2023-03-24T08:47:58.504Z,3.33
2023-03-24T08:50:32.187Z,3.53
2023-03-24T08:53:00.589Z,3.37
2023-03-24T08:55:29.240Z,2.83
2023-03-24T08:57:57.912Z,3.60
2023-03-24T09:00:26.334Z,3.00
2023-03-24T09:02:56.464Z,3.37
2023-03-24T09:05:43.493Z,3.13
2023-03-24T09:08:13.946Z,5.03
2023-03-24T09:10:42.677Z,3.13
2023-03-24T09:13:11.232Z,4.10
2023-03-24T09:15:39.662Z,3.13
2023-03-24T09:18:08.383Z,3.30
2023-03-24T09:20:37.911Z,2.87
2023-03-24T09:23:06.443Z,3.60
2023-03-24T09:25:34.985Z,3.20
2023-03-24T09:28:03.360Z,3.17
2023-03-24T09:30:34.001Z,3.43
2023-03-24T09:33:03.605Z,3.57
2023-03-24T09:35:32.045Z,2.90
2023-03-24T09:38:01.938Z,3.33
2023-03-24T09:40:32.633Z,3.33
2023-03-24T09:43:06.598Z,2.73
2023-03-24T09:45:38.802Z,3.53
2023-03-24T09:48:13.198Z,3.07
2023-03-24T09:50:50.076Z,2.70
2023-03-24T09:53:28.989Z,2.73
2023-03-24T09:55:58.912Z,2.97
2023-03-24T09:58:33.793Z,2.53
2023-03-24T10:01:02.402Z,3.40
2023-03-24T10:03:30.932Z,3.20
2023-03-24T10:06:07.552Z,2.70
2023-03-24T10:08:39.204Z,5.27
2023-03-24T10:11:12.848Z,3.10
2023-03-24T10:13:52.338Z,3.70
2023-03-24T10:16:28.477Z,2.53
2023-03-24T10:19:03.296Z,2.73
2023-03-24T10:21:34.880Z,2.83
2023-03-24T10:24:11.340Z,3.73
2023-03-24T10:26:47.104Z,2.47
2023-03-24T10:29:23.747Z,2.97
2023-03-24T10:31:57.586Z,2.73
2023-03-24T10:34:29.639Z,3.23
2023-03-24T10:37:00.923Z,2.63
2023-03-24T10:39:41.935Z,2.00
2023-03-24T10:42:17.322Z,2.80
2023-03-24T10:44:47.047Z,3.03
2023-03-24T10:47:17.314Z,3.27
2023-03-24T10:49:55.085Z,2.80
2023-03-24T10:52:24.977Z,2.90
2023-03-24T10:54:59.937Z,3.00
2023-03-24T10:57:29.426Z,3.20
2023-03-24T11:00:01.623Z,2.67
2023-03-24T11:02:32.356Z,3.10
2023-03-24T11:05:03.709Z,3.47
2023-03-24T11:07:35.743Z,2.80
2023-03-24T11:10:07.984Z,3.00
2023-03-24T11:12:38.098Z,2.47
2023-03-24T11:15:22.069Z,4.43
2023-03-24T11:17:56.131Z,5.03
2023-03-24T11:20:31.299Z,2.53
2023-03-24T11:23:02.885Z,2.93
2023-03-24T11:25:35.412Z,2.83
2023-03-24T11:28:06.935Z,3.43
2023-03-24T11:30:45.993Z,3.10
2023-03-24T11:33:34.875Z,3.40
2023-03-24T11:36:11.003Z,3.17
2023-03-24T11:38:39.398Z,3.33
2023-03-24T11:41:23.445Z,2.83
2023-03-24T11:43:51.651Z,3.13
2023-03-24T11:46:23.454Z,3.73
2023-03-24T11:48:54.904Z,3.63
2023-03-24T11:51:30.081Z,3.07
2023-03-24T11:54:01.238Z,3.47
2023-03-24T11:56:38.068Z,3.57
2023-03-24T11:59:14.329Z,5.53
2023-03-24T12:01:51.783Z,3.53
2023-03-24T12:04:37.249Z,3.20
2023-03-24T12:07:33.627Z,4.13
2023-03-24T12:10:07.879Z,3.70
2023-03-24T12:12:43.593Z,3.10
2023-03-24T12:15:35.361Z,2.90
2023-03-24T12:18:16.485Z,2.90
2023-03-24T12:20:54.521Z,3.40
2023-03-24T12:23:30.131Z,5.03
2023-03-24T12:26:18.279Z,4.37
2023-03-24T12:28:59.613Z,3.53
2023-03-24T12:31:46.546Z,3.53
2023-03-24T12:34:43.825Z,3.43
2023-03-24T12:37:19.739Z,3.63
2023-03-24T12:39:55.459Z,3.37
2023-03-24T12:42:27.077Z,3.13
2023-03-24T12:45:14.801Z,2.90
2023-03-24T12:47:54.843Z,3.70
2023-03-24T12:50:36.293Z,3.07
2023-03-24T12:53:36.992Z,3.27
2023-03-24T12:56:10.670Z,2.93
2023-03-24T12:58:45.496Z,2.47
2023-03-24T13:01:23.878Z,2.97
2023-03-24T13:03:57.457Z,2.80
2023-03-24T13:06:32.365Z,2.80
2023-03-24T13:09:20.840Z,2.70
2023-03-24T13:11:57.617Z,2.50
2023-03-24T13:14:32.364Z,1.93
2023-03-24T13:17:08.768Z,2.00
2023-03-24T13:19:38.864Z,2.40
2023-03-24T13:22:11.692Z,1.87
2023-03-24T13:24:40.369Z,1.70
2023-03-24T13:27:15.364Z,1.70
2023-03-24T13:30:19.656Z,1.33
2023-03-24T13:32:52.708Z,1.50
2023-03-24T13:35:33.065Z,1.90
2023-03-24T13:38:09.747Z,1.47
2023-03-24T13:40:41.605Z,1.60
2023-03-24T13:43:13.558Z,1.50
2023-03-24T13:45:44.247Z,1.10
2023-03-24T13:48:30.375Z,1.30
2023-03-24T13:51:02.463Z,1.43
2023-03-24T13:53:37.807Z,1.27
2023-03-24T13:56:08.239Z,1.10
2023-03-24T13:59:06.117Z,1.00
2023-03-24T14:01:38.199Z,1.20
2023-03-24T14:04:29.468Z,1.30
2023-03-24T14:06:59.593Z,1.70
2023-03-24T14:09:29.591Z,1.40
2023-03-24T14:12:19.412Z,1.73
2023-03-24T14:15:20.023Z,1.67
2023-03-24T14:17:54.628Z,1.60
2023-03-24T14:20:36.059Z,1.53
2023-03-24T14:23:05.287Z,1.60
2023-03-24T14:25:36.878Z,1.70
2023-03-24T14:28:22.664Z,1.83
2023-03-24T14:31:13.279Z,1.30
2023-03-24T14:33:46.362Z,1.10
2023-03-24T14:36:23.233Z,1.60
2023-03-24T14:38:52.519Z,1.50
2023-03-24T14:41:31.331Z,1.63
2023-03-24T14:44:01.681Z,1.33
2023-03-24T14:46:59.138Z,1.40
2023-03-24T14:49:33.074Z,1.10
2023-03-24T14:52:12.351Z,1.00
2023-03-24T14:54:44.588Z,1.10
2023-03-24T14:57:20.790Z,1.27
2023-03-24T14:59:54.187Z,0.70
2023-03-24T15:02:31.142Z,0.70
2023-03-24T15:05:25.106Z,0.87
2023-03-24T15:08:18.395Z,0.70
2023-03-24T15:10:51.498Z,1.07
2023-03-24T15:13:30.808Z,1.40
2023-03-24T15:16:00.689Z,1.10
2023-03-24T15:18:29.320Z,1.20
2023-03-24T15:20:57.706Z,1.13
2023-03-24T15:23:29.323Z,1.20
2023-03-24T15:25:57.602Z,1.03
2023-03-24T15:28:28.253Z,1.17
2023-03-24T15:30:59.410Z,1.40
2023-03-24T15:33:30.841Z,1.30
2023-03-24T15:36:01.455Z,1.57
2023-03-24T15:38:32.761Z,1.33
2023-03-24T15:41:02.247Z,1.23
2023-03-24T15:43:31.161Z,0.93
2023-03-24T15:46:11.680Z,1.27
2023-03-24T15:48:41.324Z,1.10
2023-03-24T15:51:12.390Z,1.30
2023-03-24T15:53:45.974Z,0.90
2023-03-24T15:56:26.316Z,1.00
2023-03-24T15:58:57.073Z,1.00
2023-03-24T16:01:36.685Z,1.50
2023-03-24T16:04:07.372Z,1.00
2023-03-24T16:06:36.925Z,1.57
2023-03-24T16:09:10.802Z,1.77
2023-03-24T16:11:38.946Z,2.20
2023-03-24T16:14:25.094Z,2.70
2023-03-24T16:16:55.410Z,2.03
2023-03-24T16:19:24.019Z,3.30
2023-03-24T16:21:52.599Z,3.50
2023-03-24T16:24:22.638Z,4.23
2023-03-24T16:26:51.169Z,3.23
2023-03-24T16:29:21.671Z,5.20
2023-03-24T16:31:51.430Z,5.93
2023-03-24T16:34:21.366Z,5.30
2023-03-24T16:36:51.429Z,6.07
2023-03-24T16:39:22.913Z,5.53
2023-03-24T16:41:51.591Z,7.07
2023-03-24T16:44:20.042Z,7.00
2023-03-24T16:46:52.370Z,7.63
2023-03-24T16:49:23.614Z,6.23
2023-03-24T16:51:53.279Z,5.27
2023-03-24T16:54:23.285Z,8.33
2023-03-24T16:56:51.537Z,6.27
2023-03-24T16:59:19.899Z,7.90
2023-03-24T17:01:48.626Z,7.90
2023-03-24T17:04:19.428Z,8.83
2023-03-24T17:06:51.832Z,6.83
2023-03-24T17:09:21.006Z,5.90
2023-03-24T17:11:53.115Z,8.80
2023-03-24T17:14:21.766Z,9.30
2023-03-24T17:16:53.807Z,11.23
2023-03-24T17:19:24.900Z,9.43
2023-03-24T17:21:59.353Z,8.20
2023-03-24T17:24:28.680Z,9.17
2023-03-24T17:26:58.193Z,6.00
2023-03-24T17:29:26.448Z,5.03
2023-03-24T17:31:55.459Z,7.70
2023-03-24T17:34:23.714Z,8.37
2023-03-24T17:36:52.341Z,8.43
2023-03-24T17:39:21.964Z,6.27
2023-03-24T17:41:50.481Z,7.70
2023-03-24T17:44:20.162Z,5.70
2023-03-24T17:46:48.993Z,6.00
2023-03-24T17:49:17.300Z,5.23
2023-03-24T17:51:45.487Z,6.43
2023-03-24T17:54:14.230Z,5.83
2023-03-24T17:56:42.598Z,6.50
2023-03-24T17:59:10.856Z,5.97
2023-03-24T18:01:40.921Z,5.13
2023-03-24T18:04:09.421Z,5.63
2023-03-24T18:06:38.607Z,5.50
2023-03-24T18:09:07.465Z,5.50
2023-03-24T18:11:36.058Z,2.17
2023-03-24T18:14:04.436Z,4.20
2023-03-24T18:16:35.443Z,4.80
2023-03-24T18:19:05.630Z,3.47
2023-03-24T18:21:34.057Z,2.97
2023-03-24T18:24:02.570Z,2.10
2023-03-24T18:26:31.081Z,1.20
2023-03-24T18:28:59.284Z,0.93
2023-03-24T18:31:28.105Z,0.73
2023-03-24T18:33:56.362Z,0.70
2023-03-24T18:36:27.297Z,0.80
2023-03-24T18:39:00.190Z,0.33
2023-03-24T18:41:30.525Z,0.40
2023-03-24T18:44:00.577Z,0.57
2023-03-24T18:46:29.163Z,0.40
2023-03-24T18:48:58.169Z,0.40
2023-03-24T18:51:28.458Z,0.40
2023-03-24T18:53:56.960Z,0.50
2023-03-24T18:56:25.606Z,0.40
2023-03-24T18:58:53.930Z,0.40
2023-03-24T19:01:26.250Z,0.40
2023-03-24T19:03:55.002Z,0.30
2023-03-24T19:06:26.301Z,0.40
2023-03-24T19:08:56.530Z,0.50
2023-03-24T19:11:25.367Z,0.40
2023-03-24T19:13:53.648Z,0.40
2023-03-24T19:16:22.152Z,0.30
2023-03-24T19:18:50.718Z,0.47
2023-03-24T19:21:19.394Z,0.20
2023-03-24T19:23:48.993Z,0.40
2023-03-24T19:26:20.933Z,0.30
2023-03-24T19:28:49.431Z,0.50
2023-03-24T19:31:19.959Z,0.50
2023-03-24T19:33:48.676Z,0.40
2023-03-24T19:36:18.245Z,0.50
2023-03-24T19:38:46.466Z,0.77
2023-03-24T19:41:15.970Z,0.40
2023-03-24T19:43:45.574Z,0.40
2023-03-24T19:46:13.801Z,0.40
2023-03-24T19:48:42.005Z,0.50
2023-03-24T19:51:10.520Z,0.60
2023-03-24T19:53:38.703Z,0.40
2023-03-24T19:56:07.885Z,0.70
2023-03-24T19:58:36.207Z,0.30
2023-03-24T20:01:06.156Z,0.30
2023-03-24T20:03:36.609Z,0.40
2023-03-24T20:06:08.392Z,0.30
2023-03-24T20:08:36.961Z,0.30
2023-03-24T20:11:08.281Z,0.30
2023-03-24T20:13:36.962Z,0.30
2023-03-24T20:16:07.343Z,0.30
2023-03-24T20:18:36.423Z,0.30
2023-03-24T20:21:06.723Z,0.30
2023-03-24T20:23:34.889Z,0.30
2023-03-24T20:26:03.397Z,0.30
2023-03-24T20:28:32.107Z,0.23
2023-03-24T20:31:01.797Z,0.40
2023-03-24T20:33:32.300Z,0.30
2023-03-24T20:36:01.263Z,0.20
2023-03-24T20:38:29.508Z,0.23
2023-03-24T20:41:01.680Z,0.30
2023-03-24T20:43:36.145Z,0.27
2023-03-24T20:46:05.111Z,0.30
2023-03-24T20:48:35.179Z,0.30
2023-03-24T20:51:04.601Z,0.33
2023-03-24T20:53:35.735Z,0.37
2023-03-24T20:56:06.750Z,0.20
2023-03-24T20:58:36.234Z,0.27
2023-03-24T21:01:08.310Z,0.30
2023-03-24T21:03:38.590Z,0.30
2023-03-24T21:06:10.670Z,0.30
2023-03-24T21:08:42.351Z,0.30
2023-03-24T21:11:12.586Z,0.30
2023-03-24T21:13:41.465Z,0.40
2023-03-24T21:16:10.718Z,0.50
2023-03-24T21:18:42.725Z,0.40
2023-03-24T21:21:12.554Z,0.30
2023-03-24T21:23:42.903Z,0.30
2023-03-24T21:26:15.337Z,0.40
2023-03-24T21:28:43.948Z,0.50
2023-03-24T21:31:14.920Z,0.30
2023-03-24T21:33:44.731Z,0.30
2023-03-24T21:36:13.494Z,0.33
2023-03-24T21:38:42.151Z,0.30
2023-03-24T21:41:11.594Z,0.40
2023-03-24T21:43:41.002Z,0.30
2023-03-24T21:46:15.288Z,0.40
2023-03-24T21:48:50.212Z,0.20
2023-03-24T21:51:20.752Z,0.20
2023-03-24T21:53:49.394Z,0.30
2023-03-24T21:56:17.563Z,0.30
2023-03-24T21:58:46.832Z,0.30
2023-03-24T22:01:15.447Z,0.37
2023-03-24T22:03:46.454Z,0.67
2023-03-24T22:06:15.447Z,0.20
2023-03-24T22:08:44.599Z,0.30
2023-03-24T22:11:15.444Z,0.20
2023-03-24T22:13:43.672Z,0.30
2023-03-24T22:16:11.874Z,0.20
2023-03-24T22:18:40.077Z,0.30
2023-03-24T22:21:11.770Z,0.27
2023-03-24T22:23:42.657Z,0.23
2023-03-24T22:26:13.652Z,0.20
2023-03-24T22:28:43.105Z,0.30
2023-03-24T22:31:13.164Z,0.20
2023-03-24T22:33:41.765Z,0.30
2023-03-24T22:36:12.512Z,0.30
2023-03-24T22:38:41.169Z,0.30
2023-03-24T22:41:12.251Z,0.30
2023-03-24T22:43:41.638Z,0.30
2023-03-24T22:46:11.033Z,0.20
2023-03-24T22:48:40.409Z,0.30
2023-03-24T22:51:09.486Z,0.40
2023-03-24T22:53:39.234Z,0.20
2023-03-24T22:56:09.162Z,0.50
2023-03-24T22:58:37.540Z,0.33
2023-03-24T23:01:06.212Z,0.40
2023-03-24T23:03:35.466Z,0.50
2023-03-24T23:06:04.866Z,0.40
2023-03-24T23:08:34.494Z,0.40
2023-03-24T23:11:06.396Z,0.30
2023-03-24T23:13:35.838Z,0.30
2023-03-24T23:16:04.156Z,0.40
2023-03-24T23:18:32.808Z,0.27
2023-03-24T23:21:07.131Z,0.30
2023-03-24T23:23:36.259Z,0.23
2023-03-24T23:26:07.014Z,0.30
2023-03-24T23:28:35.723Z,0.40
2023-03-24T23:31:04.251Z,0.40
2023-03-24T23:33:32.880Z,0.30
2023-03-24T23:36:01.823Z,0.30
2023-03-24T23:38:31.707Z,0.40
2023-03-24T23:41:00.202Z,0.30
2023-03-24T23:43:29.783Z,0.20
2023-03-24T23:45:58.584Z,0.20
2023-03-24T23:48:27.691Z,0.20
2023-03-24T23:50:59.092Z,0.33
2023-03-24T23:53:27.711Z,0.40
2023-03-24T23:55:57.377Z,0.40
2023-03-24T23:58:25.789Z,0.30
